Palmer, IL (62556)

11:56 AM CDT on July 02, 2015 (GMT -0500)
RURAL KINCAID IL USA | | Change Station
CLOSE
Current Station
Personal Weather Station
Location: PAWNEE, IL
Elevation: 610 ft
Nearby Weather Stations

Elev 610 ft 39.57 °N, 89.43 °W | Updated 1 minute ago

Partly Cloudy
Partly Cloudy
75.6 °F
Feels Like 78 °F
N
10.0
Wind Variable Wind from NNE
Gusts 10.0 mph

Today
High -- | Low -- °F
--% Chance of Precip.
Yesterday
High -- | Low -- °F
Precip. -- in
5:34 AM 8:28 PM
Full, 100% visible
Pressure 29.93 in
Visibility 10.0 miles
Clouds Scattered Clouds 3300 ft
Scattered Clouds 4200 ft
Scattered Clouds 4900 ft
Heat Index 78 °F
Dew Point 57 °F
Humidity 53%
Rainfall 0.28 in
Snow Depth Not available.
UV 8 out of 12
Pollen .60 out of 12
Air Quality Not available.
Flu Activity Not available.
METAR K3LF 021600Z AUTO 03010KT 10SM SCT033 SCT042 SCT049 20/14 A2993 RMK AO2 T02010144

More Conditions Fewer Conditions

Pressure 29.93 in
Visibility 10.0 miles
Clouds Scattered Clouds 3300 ft
Scattered Clouds 4200 ft
Scattered Clouds 4900 ft
Heat Index 78 °F
Dew Point 57 °F
Humidity 53%
Rainfall 0.28 in
Snow Depth Not available.
UV 8 out of 12
Pollen .60 out of 12
Air Quality Not available.
Flu Activity Not available.
METAR K3LF 021600Z AUTO 03010KT 10SM SCT033 SCT042 SCT049 20/14 A2993 RMK AO2 T02010144

More Conditions Fewer Conditions

10-Day Weather Forecast

×

Almanac

Astronomy

Jul. 02, 2015 Rise Set
Actual Time
Civil Twilight
Nautical Twilight
Astronomical Twilight
Moon
Length of Visible Light
Length of Day
Tomorrow will be .
, % of the Moon is Illuminated

Today's Extremes

State Highs State Lows

Community

WunderPhotos

Upload Photos

1,834,498 photos uploaded!

WunderBlogs® & News

Nearby

Air Quality

  Air Quality AQ Index Pollutant
Not available.

Snow Depth

Station Depth Elevation

Earthquake Activity

City Distance Mag. Time & Date
Minimum magnitude displayed is 2.5.

Coastal Water Temperatures

Place Temperature

Stations

Nearby Weather Stations

Station Location Temp. Windchill Dew Point Humidity Wind Precip. Elev Updated Type